createdAt,value
2022-11-29T01:27:45.766Z,0.00
2022-11-29T01:32:24.019Z,0.00
2022-11-29T01:37:23.957Z,0.00
2022-11-29T01:42:23.861Z,0.00
2022-11-29T01:47:23.810Z,0.00
2022-11-29T01:52:23.806Z,0.00
2022-11-29T01:57:23.658Z,0.00
2022-11-29T02:02:23.731Z,0.00
2022-11-29T02:07:23.623Z,0.00
2022-11-29T02:12:23.697Z,0.00
2022-11-29T02:42:22.118Z,0.00
2022-11-29T02:47:21.621Z,0.00
2022-11-29T02:52:21.677Z,0.00
2022-11-29T02:57:21.741Z,0.00
2022-11-29T04:48:15.552Z,0.00
2022-11-29T04:53:14.339Z,0.00
2022-11-29T05:03:01.076Z,0.00
2022-11-29T08:26:36.164Z,1952.00
2022-11-29T08:31:36.148Z,1880.00
2022-11-29T08:36:36.042Z,1768.00
2022-11-29T08:41:36.019Z,1756.00
2022-11-29T08:46:43.391Z,1812.00
2022-11-29T09:58:44.619Z,2500.00
2022-11-29T10:05:12.337Z,2996.00
2022-11-29T10:37:21.834Z,4056.00
2022-11-29T10:42:21.439Z,3968.00
2022-11-29T11:04:09.660Z,3956.00
2022-11-29T11:09:09.399Z,3984.00
2022-11-29T11:14:10.592Z,4108.00
2022-11-29T11:22:18.558Z,4144.00
2022-11-29T11:27:18.532Z,4232.00
2022-11-29T11:32:18.405Z,4076.00
2022-11-29T11:37:18.238Z,3896.00
2022-11-29T11:45:03.710Z,3832.00
2022-11-29T11:50:03.351Z,3948.00
2022-11-29T11:55:03.226Z,3912.00
2022-11-29T12:00:06.985Z,3464.00
2022-11-29T12:05:03.009Z,3328.00
2022-11-29T12:10:02.998Z,3144.00
2022-11-29T12:15:02.886Z,2964.00
2022-11-29T12:20:02.677Z,2664.00
2022-11-29T12:25:02.906Z,2500.00
2022-11-29T12:30:02.612Z,2416.00
2022-11-29T12:35:05.688Z,2308.00
2022-11-29T12:40:02.592Z,2120.00
2022-11-29T12:45:02.624Z,1924.00
2022-11-29T12:50:02.308Z,1820.00
2022-11-29T12:55:02.444Z,1744.00
2022-11-29T13:00:02.317Z,1784.00
2022-11-29T13:05:02.242Z,1648.00
2022-11-29T13:10:02.035Z,1724.00
2022-11-29T13:20:00.543Z,1712.00
2022-11-29T13:30:17.456Z,1356.00
2022-11-29T13:35:17.091Z,1288.00
2022-11-29T13:40:17.251Z,1204.00
2022-11-29T13:57:26.744Z,936.00
2022-11-29T14:02:26.599Z,892.00
2022-11-29T14:07:26.530Z,844.00
2022-11-29T14:13:56.888Z,732.00
2022-11-29T14:20:13.791Z,588.00
2022-11-29T14:25:42.926Z,452.00
2022-11-29T14:31:24.979Z,352.00
2022-11-29T14:36:24.715Z,276.00
2022-11-29T14:41:24.608Z,252.00
2022-11-29T14:46:29.034Z,252.00
2022-11-29T14:51:25.804Z,220.00
2022-11-29T14:56:24.342Z,192.00
2022-11-29T15:01:24.368Z,144.00
2022-11-29T15:06:24.242Z,100.00
2022-11-29T15:11:24.326Z,60.00
2022-11-29T15:16:24.114Z,36.00
2022-11-29T15:21:27.205Z,20.00
2022-11-29T15:26:23.957Z,12.00
2022-11-29T15:31:23.965Z,4.00
2022-11-29T15:36:23.783Z,4.00
2022-11-29T15:41:31.281Z,0.00
2022-11-29T15:46:23.641Z,0.00
2022-11-29T15:51:23.832Z,0.00
2022-11-29T15:56:23.625Z,0.00
2022-11-29T16:01:24.007Z,0.00
2022-11-29T16:06:23.465Z,0.00
2022-11-29T16:11:23.609Z,0.00
2022-11-29T16:16:23.383Z,0.00
2022-11-29T16:21:26.229Z,0.00
2022-11-29T16:26:23.228Z,0.00
2022-11-29T16:31:23.324Z,0.00
2022-11-29T16:36:23.064Z,0.00
2022-11-29T16:41:23.004Z,0.00
2022-11-29T16:46:22.875Z,0.00
2022-11-29T16:51:23.070Z,0.00
2022-11-29T16:56:22.859Z,0.00
2022-11-29T17:01:22.747Z,0.00
2022-11-29T17:06:22.653Z,0.00
2022-11-29T17:11:22.634Z,0.00
2022-11-29T17:16:22.922Z,0.00
2022-11-29T17:23:15.961Z,0.00
2022-11-29T17:28:15.992Z,0.00
2022-11-29T17:33:15.704Z,0.00
2022-11-29T17:38:15.602Z,0.00
2022-11-29T17:43:15.687Z,0.00
2022-11-29T17:48:15.471Z,0.00
2022-11-29T18:25:37.608Z,0.00
2022-11-29T18:36:33.908Z,0.00
2022-11-29T18:41:33.793Z,0.00
2022-11-29T18:56:38.002Z,0.00
2022-11-29T19:01:37.742Z,0.00
2022-11-29T19:30:35.387Z,0.00
2022-11-29T19:35:32.128Z,0.00
2022-11-29T19:54:12.707Z,0.00
2022-11-29T19:59:12.567Z,0.00
2022-11-29T20:04:12.262Z,0.00
2022-11-29T20:09:12.196Z,0.00
2022-11-29T20:14:12.079Z,0.00
2022-11-29T20:19:12.287Z,0.00
2022-11-29T20:24:12.050Z,0.00
2022-11-29T20:29:11.911Z,0.00
2022-11-29T20:34:12.143Z,0.00
2022-11-29T20:39:11.782Z,0.00
2022-11-29T20:44:14.908Z,0.00
2022-11-29T20:49:11.754Z,0.00
2022-11-29T20:54:11.671Z,0.00
2022-11-29T21:02:51.541Z,0.00
2022-11-29T21:07:51.184Z,0.00
2022-11-29T21:12:51.187Z,0.00
2022-11-29T21:17:50.980Z,0.00
2022-11-29T21:22:50.890Z,0.00
2022-11-29T21:27:50.957Z,0.00
2022-11-29T21:32:50.812Z,0.00
2022-11-29T21:37:50.805Z,0.00
2022-11-29T21:42:50.817Z,0.00
2022-11-29T21:47:50.803Z,0.00
2022-11-29T21:52:53.533Z,0.00
2022-11-29T21:57:50.552Z,0.00
2022-11-29T22:02:50.681Z,0.00
2022-11-29T22:07:50.354Z,0.00
2022-11-29T22:12:52.620Z,0.00
2022-11-29T22:17:50.297Z,0.00
2022-11-29T22:22:51.077Z,0.00
2022-11-29T22:27:50.126Z,0.00
2022-11-29T22:32:50.159Z,0.00
2022-11-29T22:42:12.291Z,0.00
2022-11-29T22:47:11.848Z,0.00
2022-11-29T22:52:12.029Z,0.00
2022-11-29T22:57:11.773Z,0.00
2022-11-29T23:02:11.940Z,0.00
2022-11-29T23:11:57.907Z,0.00
2022-11-29T23:16:57.645Z,0.00
2022-11-29T23:21:57.578Z,0.00
2022-11-29T23:26:57.471Z,0.00
2022-11-29T23:31:57.553Z,0.00
2022-11-29T23:36:57.459Z,0.00
2022-11-29T23:41:57.318Z,0.00
2022-11-29T23:46:57.372Z,0.00
2022-11-29T23:51:57.218Z,0.00
2022-11-29T23:56:57.138Z,0.00
